createdAt,value
2022-08-09T00:00:11.234Z,21.45
2022-08-09T00:02:42.871Z,21.37
2022-08-09T00:06:17.699Z,21.36
2022-08-09T00:08:31.479Z,21.38
2022-08-09T00:11:05.795Z,21.44
2022-08-09T00:13:50.860Z,21.47
2022-08-09T00:16:26.416Z,21.51
2022-08-09T00:19:09.452Z,21.49
2022-08-09T00:21:38.899Z,21.44
2022-08-09T00:24:27.418Z,21.53
2022-08-09T00:26:56.023Z,21.53
2022-08-09T00:29:39.946Z,21.57
2022-08-09T00:32:13.773Z,21.62
2022-08-09T00:34:53.347Z,21.46
2022-08-09T00:37:20.919Z,21.56
2022-08-09T00:40:12.078Z,21.52
2022-08-09T00:44:24.696Z,21.49
2022-08-09T00:45:23.857Z,21.47
2022-08-09T00:47:53.381Z,21.49
2022-08-09T00:50:24.210Z,21.41
2022-08-09T00:52:52.808Z,21.37
2022-08-09T00:56:04.120Z,21.37
2022-08-09T00:58:09.700Z,21.29
2022-08-09T01:00:43.713Z,21.33
2022-08-09T01:03:28.325Z,21.20
2022-08-09T01:06:17.356Z,20.99
2022-08-09T01:09:13.882Z,20.76
2022-08-09T01:11:41.832Z,20.58
2022-08-09T01:14:41.418Z,20.45
2022-08-09T01:17:30.430Z,20.49
2022-08-09T01:20:14.989Z,20.42
2022-08-09T01:23:03.430Z,20.17
2022-08-09T01:25:53.128Z,20.08
2022-08-09T01:28:23.567Z,20.02
2022-08-09T01:30:58.956Z,19.70
2022-08-09T01:33:29.853Z,19.63
2022-08-09T01:36:07.144Z,19.38
2022-08-09T01:38:40.042Z,19.39
2022-08-09T01:41:17.024Z,19.31
2022-08-09T01:43:52.846Z,19.37
2022-08-09T01:46:26.893Z,19.30
2022-08-09T01:48:59.875Z,19.50
2022-08-09T01:51:33.174Z,19.52
2022-08-09T01:54:03.902Z,19.44
2022-08-09T01:56:35.062Z,19.32
2022-08-09T01:59:09.043Z,19.47
2022-08-09T02:01:59.345Z,19.15
2022-08-09T02:04:28.374Z,18.89
2022-08-09T02:07:15.418Z,18.96
2022-08-09T02:10:05.925Z,18.74
2022-08-09T02:12:35.579Z,18.96
2022-08-09T02:15:06.405Z,19.10
2022-08-09T02:18:09.579Z,19.11
2022-08-09T02:20:32.937Z,19.12
2022-08-09T02:23:23.668Z,19.17
2022-08-09T02:25:56.895Z,19.18
2022-08-09T02:28:35.997Z,19.16
2022-08-09T02:31:07.564Z,19.17
2022-08-09T02:34:06.318Z,19.22
2022-08-09T02:36:36.059Z,19.18
2022-08-09T02:39:07.386Z,19.14
2022-08-09T02:41:49.462Z,19.14
2022-08-09T02:44:27.411Z,19.05
2022-08-09T02:47:04.219Z,19.14
2022-08-09T02:49:38.853Z,19.16
2022-08-09T02:52:15.448Z,19.09
2022-08-09T02:54:54.061Z,19.07
2022-08-09T02:57:27.667Z,19.04
2022-08-09T03:00:21.241Z,19.10
2022-08-09T03:02:58.411Z,19.13
2022-08-09T03:05:29.913Z,19.15
2022-08-09T03:08:04.525Z,19.07
2022-08-09T03:10:35.293Z,19.10
2022-08-09T03:13:08.439Z,19.09
2022-08-09T03:16:06.808Z,19.13
2022-08-09T03:18:31.654Z,19.21
2022-08-09T03:21:00.252Z,19.13
2022-08-09T03:23:28.398Z,19.13
2022-08-09T03:26:03.179Z,19.13
2022-08-09T03:28:33.728Z,19.17
2022-08-09T03:31:04.246Z,19.22
2022-08-09T03:33:54.316Z,19.15
2022-08-09T03:36:20.321Z,19.19
2022-08-09T03:38:48.632Z,19.09
2022-08-09T03:41:18.333Z,19.06
2022-08-09T03:44:03.956Z,18.93
2022-08-09T03:46:35.040Z,18.94
2022-08-09T03:49:08.505Z,19.03
2022-08-09T03:51:58.469Z,18.97
2022-08-09T03:54:32.231Z,18.60
2022-08-09T03:57:04.456Z,18.53
2022-08-09T03:59:54.693Z,18.85
2022-08-09T04:02:28.594Z,18.74
2022-08-09T04:04:59.322Z,18.76
2022-08-09T04:07:51.136Z,18.46
2022-08-09T04:10:18.225Z,18.39
2022-08-09T04:12:52.895Z,18.49
2022-08-09T04:15:39.197Z,18.47
2022-08-09T04:18:16.538Z,18.57
2022-08-09T04:20:49.809Z,18.72
2022-08-09T04:23:17.741Z,18.71
2022-08-09T04:25:49.865Z,18.73
2022-08-09T04:28:31.345Z,18.72
2022-08-09T04:31:09.278Z,18.50
2022-08-09T04:33:51.953Z,18.65
2022-08-09T04:36:23.370Z,18.68
2022-08-09T04:38:52.258Z,18.70
2022-08-09T04:41:23.427Z,18.70
2022-08-09T04:44:05.998Z,18.70
2022-08-09T04:46:56.840Z,18.66
2022-08-09T04:49:40.430Z,18.57
2022-08-09T04:52:11.986Z,18.58
2022-08-09T04:54:48.166Z,18.58
2022-08-09T04:57:15.600Z,18.61
2022-08-09T04:59:50.198Z,18.54
2022-08-09T05:02:17.819Z,18.68
2022-08-09T05:04:47.388Z,18.68
2022-08-09T05:07:19.284Z,18.77
2022-08-09T05:09:49.495Z,18.65
2022-08-09T05:12:17.919Z,18.52
2022-08-09T05:14:48.496Z,18.42
2022-08-09T05:18:38.168Z,18.29
2022-08-09T05:20:06.315Z,18.27
2022-08-09T05:23:51.053Z,18.24
2022-08-09T05:25:23.406Z,18.32
2022-08-09T05:27:55.405Z,18.10
2022-08-09T05:30:23.591Z,18.44
2022-08-09T05:32:53.272Z,18.58
2022-08-09T05:35:22.017Z,18.58
2022-08-09T05:37:51.035Z,18.67
2022-08-09T05:40:18.857Z,18.65
2022-08-09T05:42:47.572Z,18.67
2022-08-09T05:45:15.433Z,18.70
2022-08-09T05:47:52.295Z,18.52
2022-08-09T05:50:44.107Z,18.39
2022-08-09T05:53:21.753Z,18.16
2022-08-09T05:55:59.679Z,18.17
2022-08-09T05:58:29.127Z,18.19
2022-08-09T06:00:56.646Z,18.20
2022-08-09T06:03:34.891Z,18.32
2022-08-09T06:06:13.892Z,18.44
2022-08-09T06:08:42.304Z,18.40
2022-08-09T06:11:16.388Z,18.54
2022-08-09T06:13:47.564Z,18.82
2022-08-09T06:16:15.287Z,18.78
2022-08-09T06:18:43.915Z,18.90
2022-08-09T06:21:11.764Z,18.77
2022-08-09T06:23:57.460Z,19.05
2022-08-09T06:26:28.403Z,19.17
2022-08-09T06:29:00.711Z,19.25
2022-08-09T06:31:40.538Z,19.44
2022-08-09T06:34:22.564Z,19.59
2022-08-09T06:36:59.430Z,19.66
2022-08-09T06:39:49.282Z,19.66
2022-08-09T06:42:24.824Z,19.77
2022-08-09T06:44:57.336Z,19.46
2022-08-09T06:47:25.645Z,19.33
2022-08-09T06:50:14.389Z,19.36
2022-08-09T06:52:47.251Z,19.45
2022-08-09T06:55:23.213Z,19.58
2022-08-09T06:58:02.676Z,19.86
2022-08-09T07:00:54.789Z,20.00
2022-08-09T07:03:27.857Z,19.97
2022-08-09T07:06:04.576Z,20.10
2022-08-09T07:08:34.738Z,20.20
2022-08-09T07:11:06.294Z,20.36
2022-08-09T07:13:45.369Z,20.67
2022-08-09T07:16:41.486Z,20.81
2022-08-09T07:19:15.814Z,21.01
2022-08-09T07:21:55.393Z,21.32
2022-08-09T07:24:32.390Z,20.98
2022-08-09T07:27:34.266Z,21.17
2022-08-09T07:30:00.638Z,21.53
2022-08-09T07:32:33.729Z,21.35
2022-08-09T07:35:10.254Z,21.31
2022-08-09T07:37:45.641Z,21.32
2022-08-09T07:40:17.330Z,21.30
2022-08-09T07:43:00.732Z,21.40
2022-08-09T07:45:37.686Z,21.38
2022-08-09T07:48:28.563Z,21.43
2022-08-09T07:51:09.395Z,21.53
2022-08-09T07:54:05.090Z,21.61
2022-08-09T07:56:36.002Z,21.54
2022-08-09T07:59:12.434Z,21.59
2022-08-09T08:01:43.971Z,21.64
2022-08-09T08:04:25.482Z,21.64
2022-08-09T08:07:27.128Z,21.77
2022-08-09T08:09:53.485Z,21.82
2022-08-09T08:12:31.200Z,22.08
2022-08-09T08:14:59.759Z,22.28
2022-08-09T08:17:52.617Z,22.21
2022-08-09T08:20:15.754Z,22.25
2022-08-09T08:22:48.459Z,22.33
2022-08-09T08:25:16.584Z,22.23
2022-08-09T08:27:47.099Z,22.50
2022-08-09T08:30:18.570Z,22.43
2022-08-09T08:32:52.455Z,22.49
2022-08-09T08:35:22.489Z,22.55
2022-08-09T08:37:59.483Z,22.68
2022-08-09T08:40:29.662Z,22.76
2022-08-09T08:42:58.820Z,22.55
2022-08-09T08:45:37.558Z,22.69
2022-08-09T08:48:06.097Z,22.64
2022-08-09T08:50:34.709Z,22.60
2022-08-09T08:53:02.934Z,22.64
2022-08-09T08:55:32.310Z,22.61
2022-08-09T08:58:00.471Z,22.81
2022-08-09T09:00:34.348Z,22.93
2022-08-09T09:03:11.159Z,22.85
2022-08-09T09:06:01.087Z,23.00
2022-08-09T09:08:40.885Z,22.85
2022-08-09T09:11:17.510Z,22.80
2022-08-09T09:13:56.851Z,22.64
2022-08-09T09:16:33.598Z,22.68
2022-08-09T09:22:04.255Z,22.67
2022-08-09T09:24:37.771Z,22.77
2022-08-09T09:27:07.340Z,23.01
2022-08-09T09:30:10.636Z,22.97
2022-08-09T09:32:34.508Z,22.92
2022-08-09T09:35:09.813Z,23.11
2022-08-09T09:37:40.980Z,22.88
2022-08-09T09:40:11.639Z,22.85
2022-08-09T09:42:39.540Z,23.12
2022-08-09T09:45:14.501Z,23.07
2022-08-09T09:47:56.695Z,23.22
2022-08-09T09:50:51.088Z,23.30
2022-08-09T09:53:34.325Z,23.17
2022-08-09T09:56:20.150Z,23.29
2022-08-09T09:58:57.854Z,23.29
2022-08-09T10:01:37.246Z,23.38
2022-08-09T10:04:30.391Z,23.39
2022-08-09T10:07:03.442Z,23.27
2022-08-09T10:09:57.492Z,23.30
2022-08-09T10:12:29.582Z,23.38
2022-08-09T10:15:06.840Z,23.40
2022-08-09T10:17:56.509Z,23.61
2022-08-09T10:20:35.640Z,23.76
2022-08-09T10:23:20.375Z,24.23
2022-08-09T10:26:06.065Z,23.89
2022-08-09T10:28:38.360Z,23.81
2022-08-09T10:34:10.231Z,24.25
2022-08-09T10:36:45.442Z,24.21
2022-08-09T10:39:15.661Z,24.54
2022-08-09T10:41:47.675Z,25.13
2022-08-09T10:44:25.374Z,25.06
2022-08-09T10:48:12.436Z,25.24
2022-08-09T10:50:31.203Z,25.09
2022-08-09T10:53:10.454Z,25.21
2022-08-09T10:55:55.244Z,25.73
2022-08-09T10:58:35.084Z,25.83
2022-08-09T11:03:02.889Z,25.75
2022-08-09T11:04:20.064Z,25.87
2022-08-09T11:07:00.299Z,26.09
2022-08-09T11:09:37.907Z,25.38
2022-08-09T11:12:30.545Z,25.83
2022-08-09T11:15:01.627Z,26.14
2022-08-09T11:17:31.059Z,26.98
2022-08-09T11:20:20.377Z,26.63
2022-08-09T11:22:55.484Z,26.19
2022-08-09T11:25:45.395Z,26.35
2022-08-09T11:28:34.606Z,26.12
2022-08-09T11:31:38.945Z,26.12
2022-08-09T11:34:28.041Z,25.52
2022-08-09T11:36:59.805Z,25.89
2022-08-09T11:39:38.068Z,26.35
2022-08-09T11:42:14.790Z,26.42
2022-08-09T11:44:47.885Z,26.73
2022-08-09T11:47:16.395Z,26.51
2022-08-09T11:50:55.697Z,26.46
2022-08-09T11:53:21.359Z,26.42
2022-08-09T11:55:52.360Z,26.68
2022-08-09T11:58:30.382Z,27.10
2022-08-09T12:01:08.659Z,26.77
2022-08-09T12:03:57.582Z,27.20
2022-08-09T12:06:32.458Z,26.83
2022-08-09T12:09:15.237Z,27.27
2022-08-09T12:12:04.216Z,27.05
2022-08-09T12:14:40.766Z,27.33
2022-08-09T12:17:34.373Z,27.70
2022-08-09T12:20:22.348Z,28.21
2022-08-09T12:23:00.112Z,27.65
2022-08-09T12:25:37.110Z,27.04
2022-08-09T12:29:11.408Z,27.11
2022-08-09T12:31:02.834Z,26.94
2022-08-09T12:33:58.799Z,26.79
2022-08-09T12:36:32.147Z,26.71
2022-08-09T12:39:01.735Z,26.72
2022-08-09T12:41:38.963Z,26.85
2022-08-09T12:44:10.387Z,26.63
2022-08-09T12:46:49.152Z,26.58
2022-08-09T12:49:19.064Z,26.21
2022-08-09T12:52:01.422Z,26.68
2022-08-09T12:56:10.708Z,26.67
2022-08-09T12:57:46.863Z,26.30
2022-08-09T13:00:26.691Z,26.71
2022-08-09T13:02:55.917Z,26.30
2022-08-09T13:05:27.085Z,26.82
2022-08-09T13:08:16.219Z,26.75
2022-08-09T13:11:00.717Z,26.68
2022-08-09T13:14:41.146Z,26.96
2022-08-09T13:16:46.086Z,27.13
2022-08-09T13:20:10.728Z,26.99
2022-08-09T13:22:37.550Z,27.22
2022-08-09T13:25:07.569Z,26.95
2022-08-09T13:27:39.870Z,27.02
2022-08-09T13:30:49.388Z,27.68
2022-08-09T13:33:11.505Z,27.36
2022-08-09T13:36:23.467Z,27.36
2022-08-09T13:38:54.317Z,27.94
2022-08-09T13:41:58.293Z,28.53
2022-08-09T13:44:13.667Z,27.60
2022-08-09T13:47:29.744Z,28.43
2022-08-09T13:49:38.005Z,28.55
2022-08-09T13:52:09.509Z,28.22
2022-08-09T13:54:43.065Z,27.89
2022-08-09T13:57:37.297Z,27.56
2022-08-09T14:00:15.468Z,27.84
2022-08-09T14:03:04.499Z,27.83
2022-08-09T14:06:00.715Z,27.75
2022-08-09T14:08:22.863Z,27.60
2022-08-09T14:10:53.092Z,27.34
2022-08-09T14:14:16.279Z,27.22
2022-08-09T14:16:14.288Z,27.20
2022-08-09T14:18:45.916Z,27.26
2022-08-09T14:21:20.709Z,27.38
2022-08-09T14:23:56.617Z,27.78
2022-08-09T14:26:31.963Z,28.05
2022-08-09T14:29:03.735Z,28.17
2022-08-09T14:31:49.871Z,28.19
2022-08-09T14:34:30.798Z,27.70
2022-08-09T14:37:06.766Z,27.65
2022-08-09T14:39:39.891Z,27.46
2022-08-09T14:42:28.797Z,27.34
2022-08-09T14:46:40.436Z,27.24
2022-08-09T14:47:59.676Z,26.89
2022-08-09T14:50:34.358Z,26.86
2022-08-09T14:53:11.495Z,26.87
2022-08-09T14:55:42.176Z,26.90
2022-08-09T14:58:10.861Z,26.73
2022-08-09T15:00:42.302Z,26.95
2022-08-09T15:03:11.643Z,26.95
2022-08-09T15:05:45.973Z,27.05
2022-08-09T15:08:21.120Z,27.01
2022-08-09T15:11:01.092Z,26.99
2022-08-09T15:13:48.133Z,26.95
2022-08-09T15:16:19.949Z,26.86
2022-08-09T15:18:48.980Z,26.68
2022-08-09T15:22:01.802Z,26.78
2022-08-09T15:24:10.805Z,26.89
2022-08-09T15:26:46.333Z,27.01
2022-08-09T15:30:56.335Z,26.96
2022-08-09T15:32:03.929Z,26.76
2022-08-09T15:34:35.290Z,26.76
2022-08-09T15:37:24.272Z,26.72
2022-08-09T15:40:11.684Z,26.79
2022-08-09T15:42:42.469Z,26.83
2022-08-09T15:45:12.576Z,26.79
2022-08-09T15:47:47.279Z,26.69
2022-08-09T15:50:29.168Z,26.65
2022-08-09T15:53:06.528Z,26.59
2022-08-09T15:56:04.497Z,26.53
2022-08-09T15:58:27.076Z,26.46
2022-08-09T16:00:56.730Z,26.38
2022-08-09T16:03:29.482Z,26.27
2022-08-09T16:06:07.088Z,26.26
2022-08-09T16:08:56.042Z,26.22
2022-08-09T16:11:23.656Z,26.15
2022-08-09T16:14:04.726Z,26.11
2022-08-09T16:16:42.019Z,26.11
2022-08-09T16:19:15.988Z,25.97
2022-08-09T16:21:53.849Z,25.97
2022-08-09T16:24:32.919Z,25.96
2022-08-09T16:27:05.073Z,25.93
2022-08-09T16:29:37.005Z,25.91
2022-08-09T16:32:19.578Z,25.86
2022-08-09T16:34:56.768Z,25.81
2022-08-09T16:37:56.021Z,25.74
2022-08-09T16:40:29.882Z,25.71
2022-08-09T16:43:04.558Z,25.61
2022-08-09T16:45:32.744Z,25.59
2022-08-09T16:48:39.300Z,25.52
2022-08-09T16:50:58.763Z,25.56
2022-08-09T16:53:33.897Z,25.53
2022-08-09T16:56:09.322Z,25.53
2022-08-09T16:58:39.906Z,25.53
2022-08-09T17:01:19.171Z,25.51
2022-08-09T17:03:51.120Z,25.46
2022-08-09T17:06:28.828Z,25.45
2022-08-09T17:09:17.590Z,25.41
2022-08-09T17:11:48.044Z,25.34
2022-08-09T17:14:26.017Z,25.30
2022-08-09T17:17:02.739Z,25.31
2022-08-09T17:20:05.074Z,25.27
2022-08-09T17:22:24.917Z,25.23
2022-08-09T17:25:04.792Z,25.20
2022-08-09T17:27:40.061Z,25.15
2022-08-09T17:30:17.339Z,25.11
2022-08-09T17:32:48.118Z,25.06
2022-08-09T17:35:15.633Z,25.03
2022-08-09T17:38:11.868Z,24.97
2022-08-09T17:40:35.126Z,24.94
2022-08-09T17:43:32.748Z,24.90
2022-08-09T17:46:04.389Z,24.86
2022-08-09T17:48:38.584Z,24.84
2022-08-09T17:51:17.527Z,24.80
2022-08-09T17:53:53.594Z,24.72
2022-08-09T17:56:35.372Z,24.66
2022-08-09T17:59:09.441Z,24.64
2022-08-09T18:02:03.430Z,24.62
2022-08-09T18:04:28.209Z,24.59
2022-08-09T18:06:56.077Z,24.54
2022-08-09T18:09:41.041Z,24.50
2022-08-09T18:12:20.191Z,24.48
2022-08-09T18:14:54.904Z,24.43
2022-08-09T18:18:02.550Z,24.40
2022-08-09T18:20:55.247Z,24.37
2022-08-09T18:23:07.159Z,24.26
2022-08-09T18:25:52.332Z,24.26
2022-08-09T18:30:34.827Z,24.23
2022-08-09T18:31:14.838Z,24.21
2022-08-09T18:33:53.453Z,24.13
2022-08-09T18:36:26.078Z,24.17
2022-08-09T18:39:02.094Z,24.16
2022-08-09T18:41:34.790Z,24.14
2022-08-09T18:44:12.884Z,24.12
2022-08-09T18:46:50.228Z,24.09
2022-08-09T18:49:31.947Z,24.07
2022-08-09T18:52:08.824Z,24.05
2022-08-09T18:54:38.403Z,24.00
2022-08-09T18:57:06.892Z,23.87
2022-08-09T18:59:51.314Z,23.82
2022-08-09T19:02:24.106Z,23.76
2022-08-09T19:05:04.542Z,23.79
2022-08-09T19:07:59.162Z,23.75
2022-08-09T19:10:37.167Z,23.76
2022-08-09T19:13:22.953Z,23.74
2022-08-09T19:15:58.625Z,23.77
2022-08-09T19:18:32.873Z,23.66
2022-08-09T19:21:02.593Z,23.67
2022-08-09T19:24:31.529Z,23.69
2022-08-09T19:26:18.289Z,23.69
2022-08-09T19:28:50.344Z,23.68
2022-08-09T19:31:18.541Z,23.69
2022-08-09T19:33:46.104Z,23.67
2022-08-09T19:36:13.867Z,23.70
2022-08-09T19:38:41.752Z,23.71
2022-08-09T19:41:10.848Z,23.71
2022-08-09T19:44:00.698Z,23.72
2022-08-09T19:46:33.941Z,23.72
2022-08-09T19:50:05.199Z,23.63
2022-08-09T19:51:55.536Z,23.61
2022-08-09T19:54:25.293Z,23.52
2022-08-09T19:56:56.220Z,23.33
2022-08-09T19:59:59.555Z,22.81
2022-08-09T20:04:07.139Z,22.18
2022-08-09T20:05:11.365Z,21.72
2022-08-09T20:08:00.080Z,21.36
2022-08-09T20:10:36.234Z,21.37
2022-08-09T20:13:06.507Z,21.30
2022-08-09T20:16:33.819Z,20.99
2022-08-09T20:18:27.956Z,20.83
2022-08-09T20:20:57.333Z,20.62
2022-08-09T20:23:39.323Z,20.44
2022-08-09T20:26:10.047Z,20.39
2022-08-09T20:28:48.640Z,20.30
2022-08-09T20:31:18.563Z,19.98
2022-08-09T20:33:58.123Z,20.16
2022-08-09T20:36:27.113Z,19.91
2022-08-09T20:39:28.916Z,20.07
2022-08-09T20:41:42.943Z,19.71
2022-08-09T20:44:10.824Z,19.51
2022-08-09T20:46:42.846Z,19.67
2022-08-09T20:49:14.011Z,19.76
2022-08-09T20:51:50.242Z,19.76
2022-08-09T20:54:18.941Z,19.88
2022-08-09T20:56:49.748Z,19.71
2022-08-09T20:59:24.999Z,19.65
2022-08-09T21:02:18.622Z,19.69
2022-08-09T21:05:55.076Z,19.90
2022-08-09T21:07:40.233Z,19.96
2022-08-09T21:10:11.632Z,20.04
2022-08-09T21:12:39.327Z,20.05
2022-08-09T21:15:12.669Z,20.04
2022-08-09T21:18:20.974Z,20.02
2022-08-09T21:20:35.465Z,19.92
2022-08-09T21:23:04.261Z,19.94
2022-08-09T21:25:54.197Z,19.95
2022-08-09T21:28:33.805Z,19.81
2022-08-09T21:31:16.192Z,19.97
2022-08-09T21:33:50.603Z,19.86
2022-08-09T21:36:27.867Z,19.52
2022-08-09T21:38:59.401Z,19.59
2022-08-09T21:42:04.555Z,19.59
2022-08-09T21:44:33.341Z,19.45
2022-08-09T21:47:04.742Z,19.44
2022-08-09T21:49:39.195Z,19.48
2022-08-09T21:52:16.996Z,19.50
2022-08-09T21:54:53.675Z,19.47
2022-08-09T21:57:39.143Z,19.57
2022-08-09T22:00:26.750Z,19.47
2022-08-09T22:03:06.738Z,19.39
2022-08-09T22:05:42.381Z,19.44
2022-08-09T22:08:16.403Z,19.23
2022-08-09T22:11:00.642Z,19.22
2022-08-09T22:13:36.962Z,19.25
2022-08-09T22:16:07.440Z,19.36
2022-08-09T22:18:52.163Z,19.50
2022-08-09T22:21:45.308Z,19.40
2022-08-09T22:24:17.354Z,19.52
2022-08-09T22:26:53.585Z,19.43
2022-08-09T22:29:28.389Z,19.23
2022-08-09T22:32:06.772Z,19.23
2022-08-09T22:35:02.641Z,19.04
2022-08-09T22:37:40.351Z,19.07
2022-08-09T22:40:20.185Z,19.07
2022-08-09T22:42:47.990Z,19.06
2022-08-09T22:48:15.885Z,19.12
2022-08-09T22:48:29.879Z,19.12
2022-08-09T22:50:52.911Z,19.12
2022-08-09T22:53:20.896Z,19.02
2022-08-09T22:56:29.530Z,18.95
2022-08-09T22:58:38.074Z,18.84
2022-08-09T23:01:06.661Z,18.97
2022-08-09T23:04:04.868Z,18.92
2022-08-09T23:06:34.869Z,18.93
2022-08-09T23:09:07.013Z,18.98
2022-08-09T23:11:35.023Z,18.91
2022-08-09T23:14:03.711Z,18.96
2022-08-09T23:16:31.740Z,18.97
2022-08-09T23:18:59.998Z,19.04
2022-08-09T23:21:32.792Z,18.98
2022-08-09T23:24:06.078Z,19.01
2022-08-09T23:26:36.015Z,19.07
2022-08-09T23:29:10.037Z,19.05
2022-08-09T23:31:37.682Z,19.07
2022-08-09T23:34:05.792Z,18.91
2022-08-09T23:36:34.601Z,19.00
2022-08-09T23:39:04.341Z,18.98
2022-08-09T23:41:32.085Z,18.96
2022-08-09T23:44:01.467Z,18.90
2022-08-09T23:46:30.079Z,18.88
2022-08-09T23:48:58.789Z,18.91
2022-08-09T23:51:27.427Z,18.92
2022-08-09T23:54:02.528Z,18.81
2022-08-09T23:56:52.393Z,18.83
2022-08-09T23:59:20.973Z,18.93
